AirNav   Get $300 off a Bose A20
 
 866 users online  

4K3 Lexington Municipal Airport
Lexington, Missouri, USA

GOING TO LEXINGTON?


FAA INFORMATION EFFECTIVE 28 MARCH 2019

Location

FAA Identifier: 4K3
Lat/Long: 39-12-35.6000N / 093-55-39.8000W
39-12.593333N / 093-55.663333W
39.2098889 / -93.9277222
(estimated)
Elevation: 691 ft. / 210.6 m (surveyed)
Variation: 04E (1985)
From city: 3 miles NW of LEXINGTON, MO
Time zone: UTC -5 (UTC -6 during Standard Time)
Zip code: 64036

Airport Operations

Airport use: Open to the public
Activation date: 12/1945
Control tower: no
ARTCC: KANSAS CITY CENTER
FSS: COLUMBIA FLIGHT SERVICE STATION
NOTAMs facility: COU (NOTAM-D service available)
Attendance: IRREGULAR 24 HOURS/DAY
Wind indicator: yes
Segmented circle: no
Lights: RWY 4/22 LIRL OTS INDEFLY.
Beacon: white-green (lighted land airport)
ROTATING BCN OTS INDEFLY

Airport Communications

CTAF/UNICOM: 122.7
WX AWOS-3 at GPH (19 nm NW): 120.275 (816-407-3399)
  • APCH/DEP SERVICE PROVIDED BY KANSAS CITY ARTCC ON FREQS 135.575/323.15 (KNOB NOSTER RCAG).

Nearby radio navigation aids

VOR radial/distance  VOR name  Freq  Var
ANXr047/11.6NAPOLEON VORTAC114.0007E
BQSr183/25.4BRAYMER VOR/DME111.2003E
MCIr092/37.9KANSAS CITY VORTAC113.2505E

 
NDB name  Hdg/Dist  Freq  Var  ID
MARSHALL283/35.537103EPUR .--. ..- .-.

Airport Services

Parking: hangars and tiedowns
Bottled oxygen: NONE
Bulk oxygen: NONE

Runway Information

Runway 4/22

Dimensions: 2925 x 40 ft. / 892 x 12 m
Surface: asphalt, in good condition
RY 04/22 ROUGH, LARGE PITS IN SFC, CRACKS.
Runway edge lights: low intensity
RUNWAY 4  RUNWAY 22
Latitude: 39-12.414867N39-12.770117N
Longitude: 093-55.818150W093-55.399750W
Elevation: 691.0 ft.689.0 ft.
Traffic pattern: leftleft
Runway heading: 038 magnetic, 042 true218 magnetic, 222 true
Markings: NSTD, in poor conditionNSTD, in poor condition
Touchdown point: yes, no lightsno, no lights
Obstructions: 15 ft. road, 430 ft. from runway, 16:1 slope to clearnone

Runway 13/31

Dimensions: 3100 x 125 ft. / 945 x 38 m
Surface: turf, in good condition
RUNWAY 13  RUNWAY 31
Latitude: 39-12.784217N39-12.415330N
Longitude: 093-55.819643W093-55.365503W
Elevation: 690.0 ft.690.0 ft.
Traffic pattern: leftleft
Runway heading: 132 magnetic, 136 true312 magnetic, 316 true
Obstructions: 25 ft. pline, marked, 330 ft. from runway, 150 ft. left and right of centerline, 13:1 slope to clear15 ft. road, 270 ft. from runway, 140 ft. left and right of centerline, 18:1 slope to clear

Runway 18/36

Dimensions: 2250 x 125 ft. / 686 x 38 m
Surface: turf, in good condition
RUNWAY 18  RUNWAY 36
Latitude: 39-12.769533N39-12.398467N
Longitude: 093-55.829917W093-55.829917W
Elevation: 690.0 ft.690.0 ft.
Traffic pattern: leftleft
Runway heading: 176 magnetic, 180 true356 magnetic, 000 true
Obstructions: none15 ft. road, 227 ft. from runway, 15:1 slope to clear

Airport Ownership and Management from official FAA records

Ownership: Privately-owned
Owner: DAVID EDWARDS
11215 GREAT CANADIAN LANE
RICHMOND, MO 64085
Phone (816) 752-5333
Manager: DAVID EDWARDS
11215 GREAT CANADIAN LANE
RICHMOND, MO 64085
Phone (816) 752-5333

Airport Operational Statistics

Aircraft based on the field: 2
Single engine airplanes: 2
  • ULTRALIGHT ACTIVITY & RADIO CONTROLLED AIRPLANES ON & INVOF ARPT.
    
Aircraft operations: avg 92/week *
58% local general aviation
31% transient general aviation
5% military
5% air taxi
* for 12-month period ending 31 December 2015

Additional Remarks

SPORT AVIATION ACTIVITIES IN PROGRESS ON WEEKENDS.
MIGRATORY BIRDS INVOF ARPT DURING SPRING AND FALL.
NTSD RWY SAFETY AREA RWY22; INCORRECT TERRAIN GRADES.

Instrument Procedures

There are no published instrument procedures at 4K3.

Some nearby airports with instrument procedures:

KHIG - Higginsville Industrial Municipal Airport (14 nm SE)
3EX - Excelsior Springs Memorial Airport (15 nm NW)
3GV - East Kansas City Airport (18 nm SW)
KGPH - Midwest National Air Center Airport (19 nm NW)
KLXT - Lee's Summit Municipal Airport (26 nm SW)
 
Loc | Ops | Rwys | IFR | FBO | Links
Com | Nav | Svcs | Stats | Notes

Kansas City Aviation Department
 
Area around 4K3 (Lexington Municipal Airport)
 
Road maps at: MapQuest Bing Google
 
Aerial photo
WARNING: Photo may not be current or correct
Aerial photo of 4K3 (Lexington Municipal Airport)
Do you have a better or more recent aerial photo of Lexington Municipal Airport that you would like to share? If so, please send us your photo.

 
Sectional chart

 
Airport distance calculator
Flying to Lexington Municipal Airport? Find the distance to fly.

From to 4K3

Sunrise and sunset
Times for 21-Apr-2019
 Local
(UTC-5)
 Zulu
(UTC)
Morning civil twilight06:0311:03
Sunrise06:3111:31
Sunset19:5800:58
Evening civil twilight20:2601:26

Current date and time
Zulu (UTC)  21-Apr-2019 18:33:06
Local (UTC-5)  21-Apr-2019 13:33:06
 
METAR
KGPH 
19nm NW 
211815Z AUTO 18013G20KT 150V210 10SM SCT002 27/07 A2982 RMK AO2
KLXT 
25nm SW 
211753Z AUTO 19023G30KT 10SM CLR 27/10 A2983 RMK AO2 PK WND 18037/1707 SLP095 T02720100 10272 20139 58009 $
KRCM 
26nm S 
211815Z AUTO 16019G28KT 10SM CLR 26/08 A2987 RMK AO2
KMKC 
32nm W 
211754Z 18019G31KT 10SM CLR 28/08 A2981 RMK AO2 PK WND 17035/1727 SLP087 T02830083 10289 20167 58005
KMHL 
34nm E 
211815Z AUTO 16020G25KT 10SM CLR 26/09 A2989 RMK AO2
KSZL 
35nm SE 
211756Z 19020G24KT 10SM SCT170 25/10 A2984 RMK AO2A PK WND 20030/13 SLP103 T02540096 10259 20103 58010
KEZZ 
35nm NW 
211815Z AUTO 17021G30KT 10SM CLR 27/09 A2982 RMK AO2 T02710091
KMCI 
38nm W 
211753Z 21019G33KT 10SM SCT160 SCT250 28/09 A2980 RMK AO2 PK WND 19041/1737 SLP082 T02780094 10278 20150 58001
TAF
KMKC 
32nm W 
211720Z 2118/2218 18020G30KT P6SM SCT150 FM212300 17012G22KT P6SM BKN100 FM220700 19012KT P6SM VCTS BKN080CB WS020/20045KT FM221200 20011KT P6SM OVC028
KSZL 
35nm SE 
211100Z 2111/2217 17009KT 9999 SKC WS020/20045KT QNH2980INS BECMG 2116/2117 19015G20KT 9999 FEW160 QNH2984INS BECMG 2118/2119 18020G30KT 9999 FEW160 QNH2983INS BECMG 2122/2123 17012KT 9999 FEW150 WS020/20045KT QNH2984INS BECMG 2214/2215 19020G25KT 9999 BKN030 QNH2996INS TX25/2121Z TN10/2111Z
KMCI 
38nm W 
211720Z 2118/2218 18022G35KT P6SM SCT150 FM212300 17015G25KT P6SM BKN100 FM220700 19012KT P6SM VCTS BKN080CB WS020/20045KT FM221200 20011KT P6SM OVC025
NOTAMs
Click for the latest NOTAMs
NOTAMs are issued by the DoD/FAA and will open in a separate window not controlled by AirNav.

 

 
 

Would you like to see your business listed on this page?

 If your business provides an interesting product or service to pilots, flight crews, aircraft, or users of the Lexington Municipal Airport, you should consider listing it here.  To start the listing process, click on the button below
 
Add a business
 

Other Pages about Lexington Municipal Airport

Update a link
 
Copyright © AirNav, LLC. All rights reserved. Privacy Policy  Contact